Crossville Memorial Whitson Field
KCSV : now visible

Airfield :











YOU CAN JOIN US ON...

 
LOGIN :

Register | Disclaimer

   EN    FR    IT 

 









Legend :    VFR   Marginal VFR   IFR   Intensive IFR   Very Intensive IFR
Visi :
Ceiling :
>= 8 km
>= 3000ft
5 to 8 km
1000 to 3000 ft
1500m to 5 km
500 to 1000 ft
800 to 1500m
200 to 500 ft
< 800m
< 200 ft
Symbols :   Thunderstorms  Fog  Heavy snow  Heavy precipitations  Wind > 20 kt






- Airport Elevation : 1881 ft


KCSV - Crossville Memorial Whitson Field

CURRENT METAR :
  • 062353Z AUTO 28005KT 10SM FEW100 21/08 A3006 RMK AO2 SLP169 T02060083 10244 20206 55000

EXPIRED METARs :
  • 062253Z AUTO 28006KT 10SM CLR 22/08 A3005 RMK AO2 SLP165 T02220083
  • 062153Z AUTO 26011KT 10SM SCT070 23/08 A3006 RMK AO2 SLP165 T02330083

TAF KCSV
Valid from the 07 at 00:00 until the 08 at 00:00 UTC


062320Z 0700/0724 28005KT P6SM SCT200
FM071600 25009G14KT P6SM VCTS SCT060CB BKN100



MET'MAP, your aeronautical weather chart ! - Copyright ORBIFLY December 2007 - Disclaimer

ORBIFLY MET'MAP TEAM :

Programming & Development : Alexandra Zaïnal
Concept & original design : Baudouin d'Aumeries
Assistance for programming : Marc-Olivier Méhu
Technical & hardware support : Manuel Goepfert

Contact : metmap@orbifly.com




SOURCES & CREDITS :

   NOAA       Earth
Advisory